Time;durP1;ratioP1;P1;durP2;ratioP2;P2;SDS_P1;SDS_P2;PMS_P1;PMS_P2;Temp;Humidity;BMP_temperature;BMP_pressure;BME280_temperature;BME280_humidity;BME280_pressure;Samples;Min_cycle;Max_cycle;Signal;HPM_P1;HPM_P2
2022/12/04 00:00:34;;;;;;;45.53;24.63;;;;;;;;;;7350419;19;20007;-77
2022/12/04 00:02:59;;;;;;;46.40;24.63;;;;;;;;;;7343140;19;20266;-78
2022/12/04 00:05:24;;;;;;;44.70;24.45;;;;;;;;;;7359667;19;20046;-77
2022/12/04 00:07:49;;;;;;;48.38;26.45;;;;;;;;;;7362107;19;20114;-78
2022/12/04 00:10:15;;;;;;;44.45;25.27;;;;;;;;;;7351575;19;20014;-77
2022/12/04 00:12:40;;;;;;;47.00;26.02;;;;;;;;;;7344450;19;20621;-76
2022/12/04 00:15:06;;;;;;;45.85;25.50;;;;;;;;;;7351148;19;20535;-77
2022/12/04 00:17:31;;;;;;;45.85;24.55;;;;;;;;;;7361081;19;20034;-78
2022/12/04 00:19:56;;;;;;;43.30;23.85;;;;;;;;;;7356684;19;20030;-76
2022/12/04 00:22:21;;;;;;;45.30;25.08;;;;;;;;;;7359942;19;20041;-76
2022/12/04 00:24:47;;;;;;;46.08;25.48;;;;;;;;;;7367490;19;20009;-77
2022/12/04 00:27:12;;;;;;;46.78;25.38;;;;;;;;;;7354782;19;19991;-77
2022/12/04 00:29:37;;;;;;;46.67;26.98;;;;;;;;;;7366932;19;20050;-76
2022/12/04 00:32:02;;;;;;;52.55;27.20;;;;;;;;;;7367488;19;20332;-76
2022/12/04 00:34:28;;;;;;;48.97;26.10;;;;;;;;;;7367979;19;20024;-77
2022/12/04 00:36:53;;;;;;;48.08;25.75;;;;;;;;;;7366598;19;20071;-77
2022/12/04 00:39:18;;;;;;;47.45;25.83;;;;;;;;;;7368367;19;20397;-76
2022/12/04 00:41:43;;;;;;;47.13;25.92;;;;;;;;;;7363281;19;20487;-78
2022/12/04 00:44:08;;;;;;;50.65;27.90;;;;;;;;;;7356782;19;20403;-77
2022/12/04 00:46:34;;;;;;;50.55;26.70;;;;;;;;;;7368543;19;20007;-75
2022/12/04 00:49:01;;;;;;;61.72;33.10;;;;;;;;;;7365134;19;20102;-77
2022/12/04 00:51:26;;;;;;;57.42;29.13;;;;;;;;;;7362731;19;20075;-76
2022/12/04 00:53:52;;;;;;;52.55;28.55;;;;;;;;;;7367598;19;20441;-77
2022/12/04 00:56:19;;;;;;;47.80;25.35;;;;;;;;;;7354636;19;20014;-77
2022/12/04 00:58:44;;;;;;;44.72;25.23;;;;;;;;;;7366501;19;20438;-77
2022/12/04 01:01:11;;;;;;;47.08;25.77;;;;;;;;;;7367001;19;20098;-78
2022/12/04 01:03:36;;;;;;;49.40;26.08;;;;;;;;;;7376489;19;20195;-77
2022/12/04 01:06:01;;;;;;;48.28;26.95;;;;;;;;;;7376492;19;20419;-77
2022/12/04 01:08:26;;;;;;;53.60;28.55;;;;;;;;;;7365889;19;19999;-77
2022/12/04 01:10:52;;;;;;;50.45;26.63;;;;;;;;;;7342797;19;20019;-77
2022/12/04 01:13:17;;;;;;;50.72;27.00;;;;;;;;;;7357465;19;20443;-78
2022/12/04 01:15:42;;;;;;;43.60;25.55;;;;;;;;;;7353018;19;20018;-78
2022/12/04 01:18:09;;;;;;;48.92;27.35;;;;;;;;;;7365496;19;20030;-77
2022/12/04 01:20:34;;;;;;;54.60;29.23;;;;;;;;;;7363622;19;20010;-78
2022/12/04 01:22:59;;;;;;;51.67;27.63;;;;;;;;;;7358917;19;20062;-77
2022/12/04 01:25:24;;;;;;;54.10;28.38;;;;;;;;;;7359372;19;20003;-78
2022/12/04 01:27:49;;;;;;;58.63;31.33;;;;;;;;;;7357427;19;20035;-77
2022/12/04 01:30:15;;;;;;;57.53;32.28;;;;;;;;;;7364126;19;20105;-76
2022/12/04 01:32:40;;;;;;;59.55;30.40;;;;;;;;;;7365872;19;20010;-76
2022/12/04 01:35:05;;;;;;;57.72;30.20;;;;;;;;;;7360654;19;20029;-78
2022/12/04 01:37:30;;;;;;;54.03;29.95;;;;;;;;;;7366603;19;20026;-78
2022/12/04 01:39:56;;;;;;;58.25;30.80;;;;;;;;;;7335718;19;20069;-76
2022/12/04 01:42:21;;;;;;;56.65;30.67;;;;;;;;;;7361175;19;20033;-77
2022/12/04 01:45:05;;;;;;;54.22;30.08;;;;;;;;;;7367113;19;20014;-76
2022/12/04 01:47:30;;;;;;;56.50;31.10;;;;;;;;;;7368893;19;20063;-77
2022/12/04 01:49:57;;;;;;;59.40;31.52;;;;;;;;;;7369350;19;20115;-77
2022/12/04 01:52:23;;;;;;;53.47;29.45;;;;;;;;;;7364650;19;20351;-77
2022/12/04 01:54:59;;;;;;;53.15;29.80;;;;;;;;;;7358619;19;20010;-77
2022/12/04 01:57:26;;;;;;;49.90;28.83;;;;;;;;;;7365745;19;20540;-75
2022/12/04 01:59:53;;;;;;;52.30;28.85;;;;;;;;;;7367752;19;19998;-77
2022/12/04 02:02:22;;;;;;;50.60;28.35;;;;;;;;;;7363227;19;20013;-78
2022/12/04 02:04:47;;;;;;;57.92;30.77;;;;;;;;;;7366804;19;20003;-77
2022/12/04 02:07:12;;;;;;;54.33;30.00;;;;;;;;;;7354729;19;20022;-76
2022/12/04 02:09:38;;;;;;;54.60;29.92;;;;;;;;;;7358401;19;20076;-77
2022/12/04 02:12:22;;;;;;;53.55;28.63;;;;;;;;;;7363252;19;20030;-77
2022/12/04 02:14:54;;;;;;;52.42;29.10;;;;;;;;;;7362632;19;20855;-77
2022/12/04 02:17:24;;;;;;;55.80;29.42;;;;;;;;;;7357689;19;20039;-76
2022/12/04 02:20:11;;;;;;;52.20;28.40;;;;;;;;;;7359232;19;20412;-77
2022/12/04 02:22:53;;;;;;;54.78;28.60;;;;;;;;;;7361889;19;20019;-78
2022/12/04 02:25:31;;;;;;;50.45;27.02;;;;;;;;;;7349475;19;20456;-77
2022/12/04 02:27:59;;;;;;;51.70;28.40;;;;;;;;;;7363447;19;20377;-77
2022/12/04 02:30:25;;;;;;;52.08;27.92;;;;;;;;;;7353640;19;20995;-77
2022/12/04 02:33:00;;;;;;;48.95;26.77;;;;;;;;;;7364300;19;20425;-77
2022/12/04 02:35:39;;;;;;;51.97;28.10;;;;;;;;;;7363209;19;20079;-77
2022/12/04 02:38:16;;;;;;;52.60;28.13;;;;;;;;;;7362784;19;20185;-77
2022/12/04 02:40:50;;;;;;;55.58;29.95;;;;;;;;;;7308476;19;20281;-77
2022/12/04 02:43:17;;;;;;;54.35;26.70;;;;;;;;;;7242520;19;20479;-77
2022/12/04 02:45:50;;;;;;;57.47;30.00;;;;;;;;;;7242469;19;20497;-76
2022/12/04 02:48:17;;;;;;;52.15;27.55;;;;;;;;;;7243038;19;20454;-73
2022/12/04 02:50:44;;;;;;;45.15;25.02;;;;;;;;;;7253123;19;20577;-77
2022/12/04 02:53:12;;;;;;;46.60;25.30;;;;;;;;;;7254805;19;20027;-76
2022/12/04 02:55:40;;;;;;;46.90;25.08;;;;;;;;;;7245259;19;20350;-75
2022/12/04 02:58:08;;;;;;;47.70;26.35;;;;;;;;;;7254629;19;20405;-75
2022/12/04 03:00:35;;;;;;;45.95;25.30;;;;;;;;;;7264777;19;20034;-77
2022/12/04 03:03:02;;;;;;;52.38;28.58;;;;;;;;;;7249426;19;20022;-74
2022/12/04 03:05:48;;;;;;;51.97;28.35;;;;;;;;;;7246022;19;20019;-76
2022/12/04 03:08:15;;;;;;;53.92;28.95;;;;;;;;;;7245245;19;19999;-76
2022/12/04 03:10:45;;;;;;;55.20;29.02;;;;;;;;;;7250228;19;20014;-74
2022/12/04 03:13:22;;;;;;;54.58;30.15;;;;;;;;;;7254459;19;20130;-75
2022/12/04 03:15:50;;;;;;;52.47;29.05;;;;;;;;;;7253688;19;20018;-76
2022/12/04 03:18:19;;;;;;;52.90;29.27;;;;;;;;;;7250682;19;20263;-76
2022/12/04 03:20:46;;;;;;;53.38;29.48;;;;;;;;;;7252441;19;20003;-76
2022/12/04 03:23:17;;;;;;;51.95;28.25;;;;;;;;;;7249095;19;20500;-76
2022/12/04 03:25:52;;;;;;;48.78;26.27;;;;;;;;;;7252269;19;20221;-76
2022/12/04 03:28:40;;;;;;;50.97;27.77;;;;;;;;;;7253771;19;20011;-77
2022/12/04 03:31:06;;;;;;;51.20;27.05;;;;;;;;;;7261888;19;20664;-75
2022/12/04 03:33:51;;;;;;;46.45;24.63;;;;;;;;;;7253045;19;20386;-75
2022/12/04 03:36:26;;;;;;;49.05;27.02;;;;;;;;;;7257812;19;20035;-75
2022/12/04 03:38:57;;;;;;;50.50;27.85;;;;;;;;;;7263042;19;21214;-78
2022/12/04 03:41:41;;;;;;;53.55;29.02;;;;;;;;;;7332945;19;20481;-77
2022/12/04 03:44:09;;;;;;;48.47;28.30;;;;;;;;;;7373070;19;20329;-77
2022/12/04 03:46:38;;;;;;;53.42;29.20;;;;;;;;;;7360486;19;20574;-77
2022/12/04 03:49:08;;;;;;;56.67;30.08;;;;;;;;;;7363733;19;20024;-76
2022/12/04 03:51:48;;;;;;;55.03;29.67;;;;;;;;;;7364868;19;20093;-76
2022/12/04 03:54:16;;;;;;;56.35;29.52;;;;;;;;;;7363132;19;20105;-76
2022/12/04 03:56:51;;;;;;;53.80;29.70;;;;;;;;;;7371730;19;20137;-75
2022/12/04 03:59:22;;;;;;;52.50;28.38;;;;;;;;;;7365354;19;20296;-77
2022/12/04 04:01:49;;;;;;;49.83;26.88;;;;;;;;;;7367861;19;20018;-76
2022/12/04 04:04:18;;;;;;;43.83;24.85;;;;;;;;;;7363458;19;20015;-76
2022/12/04 04:06:47;;;;;;;48.05;25.02;;;;;;;;;;7364915;19;20041;-77
2022/12/04 04:09:14;;;;;;;45.03;25.02;;;;;;;;;;7360363;19;19991;-76
2022/12/04 04:11:44;;;;;;;47.70;25.95;;;;;;;;;;7365179;19;20011;-78
2022/12/04 04:25:41;;;;;;;50.78;28.45;;;;;;;;;;7358544;19;20287;-77
2022/12/04 04:28:26;;;;;;;60.80;30.85;;;;;;;;;;7362304;19;20010;-77
2022/12/04 04:30:52;;;;;;;53.25;29.95;;;;;;;;;;7365463;19;20436;-77
2022/12/04 04:33:17;;;;;;;54.55;29.95;;;;;;;;;;7365690;19;19995;-77
2022/12/04 04:35:51;;;;;;;54.85;29.75;;;;;;;;;;7363887;19;20006;-76
2022/12/04 04:38:16;;;;;;;;;;;;;;;;;;7367121;19;20003;-77
2022/12/04 04:41:14;;;;;;;58.35;30.88;;;;;;;;;;7349335;19;19929;-75
2022/12/04 04:43:46;;;;;;;56.45;30.52;;;;;;;;;;7363739;19;20459;-77
2022/12/04 04:46:17;;;;;;;52.83;28.77;;;;;;;;;;7361200;19;20017;-77
2022/12/04 04:48:45;;;;;;;55.05;31.52;;;;;;;;;;7363863;19;20021;-76
2022/12/04 04:51:10;;;;;;;59.92;33.05;;;;;;;;;;7367953;19;20133;-77
2022/12/04 04:53:37;;;;;;;57.67;31.65;;;;;;;;;;7365499;19;19998;-76
2022/12/04 04:56:04;;;;;;;57.92;30.02;;;;;;;;;;7362378;19;20439;-75
2022/12/04 04:58:29;;;;;;;53.38;29.88;;;;;;;;;;7366654;19;20336;-77
2022/12/04 05:00:57;;;;;;;57.00;30.73;;;;;;;;;;7365970;19;20011;-77
2022/12/04 05:03:22;;;;;;;58.97;30.40;;;;;;;;;;7354400;19;20007;-75
2022/12/04 05:05:47;;;;;;;60.15;31.75;;;;;;;;;;7349508;19;20014;-76
2022/12/04 05:08:13;;;;;;;61.13;32.78;;;;;;;;;;7359364;19;20010;-75
2022/12/04 05:10:38;;;;;;;56.50;30.95;;;;;;;;;;7354654;19;20721;-77
2022/12/04 05:13:03;;;;;;;62.78;33.72;;;;;;;;;;7363670;19;20344;-77
2022/12/04 05:15:28;;;;;;;61.55;33.38;;;;;;;;;;7340961;19;20110;-77
2022/12/04 05:17:53;;;;;;;61.38;33.47;;;;;;;;;;7363826;19;20108;-76
2022/12/04 05:20:19;;;;;;;61.15;32.20;;;;;;;;;;7349029;19;20485;-77
2022/12/04 05:22:44;;;;;;;63.33;33.17;;;;;;;;;;7357827;19;20014;-77
2022/12/04 05:25:09;;;;;;;58.47;31.73;;;;;;;;;;7358628;19;20015;-77
2022/12/04 05:27:34;;;;;;;65.85;34.67;;;;;;;;;;7361606;19;20011;-77
2022/12/04 05:30:00;;;;;;;65.25;34.80;;;;;;;;;;7367700;19;20006;-76
2022/12/04 05:32:26;;;;;;;65.32;33.72;;;;;;;;;;7357044;19;20006;-76
2022/12/04 05:34:52;;;;;;;63.22;32.47;;;;;;;;;;7366000;19;20022;-78
2022/12/04 05:37:17;;;;;;;60.15;32.10;;;;;;;;;;7364196;19;20014;-76
2022/12/04 05:39:42;;;;;;;55.85;31.38;;;;;;;;;;7346068;19;20570;-77
2022/12/04 05:42:07;;;;;;;57.58;32.42;;;;;;;;;;7363333;19;20077;-77
2022/12/04 05:44:32;;;;;;;52.25;28.95;;;;;;;;;;7363340;19;20015;-76
2022/12/04 05:46:58;;;;;;;58.70;30.70;;;;;;;;;;7364251;19;20023;-76
2022/12/04 05:49:23;;;;;;;59.25;30.52;;;;;;;;;;7365319;19;20022;-76
2022/12/04 05:51:49;;;;;;;56.25;31.08;;;;;;;;;;7364116;19;20462;-76
2022/12/04 05:54:14;;;;;;;64.25;32.95;;;;;;;;;;7362200;19;20006;-77
2022/12/04 05:56:39;;;;;;;57.03;31.63;;;;;;;;;;7364129;19;20030;-77
2022/12/04 05:59:04;;;;;;;59.45;33.35;;;;;;;;;;7362937;19;20062;-75
2022/12/04 06:01:30;;;;;;;54.58;30.08;;;;;;;;;;7357690;19;20951;-77
2022/12/04 06:03:55;;;;;;;52.70;30.27;;;;;;;;;;7360567;19;20054;-77
2022/12/04 06:06:21;;;;;;;51.20;28.58;;;;;;;;;;7358884;19;20044;-77
2022/12/04 06:08:47;;;;;;;52.60;29.58;;;;;;;;;;7357147;19;20305;-77
2022/12/04 06:11:13;;;;;;;54.70;29.63;;;;;;;;;;7353622;19;20401;-77
2022/12/04 06:13:42;;;;;;;48.22;27.75;;;;;;;;;;7356352;19;20017;-76
2022/12/04 06:16:11;;;;;;;51.08;27.92;;;;;;;;;;7361795;19;20014;-79
2022/12/04 06:18:37;;;;;;;47.33;26.70;;;;;;;;;;7358067;19;20433;-77
2022/12/04 06:21:02;;;;;;;45.17;25.48;;;;;;;;;;7363026;19;20006;-76
2022/12/04 06:23:27;;;;;;;52.97;29.58;;;;;;;;;;7361370;19;20407;-77
2022/12/04 06:25:52;;;;;;;52.75;27.67;;;;;;;;;;7359990;19;19999;-75
2022/12/04 06:28:18;;;;;;;48.88;27.73;;;;;;;;;;7365036;19;20018;-75
2022/12/04 06:30:43;;;;;;;50.45;28.50;;;;;;;;;;7357785;19;20027;-77
2022/12/04 06:33:08;;;;;;;49.15;27.42;;;;;;;;;;7365211;19;19999;-77
2022/12/04 06:35:33;;;;;;;47.60;27.55;;;;;;;;;;7355939;19;20232;-75
2022/12/04 06:37:58;;;;;;;54.97;29.73;;;;;;;;;;7360667;19;20424;-76
2022/12/04 06:40:23;;;;;;;51.08;28.92;;;;;;;;;;7353621;19;20021;-76
2022/12/04 06:42:49;;;;;;;51.92;28.92;;;;;;;;;;7360360;19;19999;-77
2022/12/04 06:45:14;;;;;;;53.28;29.00;;;;;;;;;;7364066;19;20023;-77
2022/12/04 06:47:39;;;;;;;54.58;28.00;;;;;;;;;;7360343;19;20086;-76
2022/12/04 06:50:05;;;;;;;54.50;29.75;;;;;;;;;;7356697;19;20022;-77
2022/12/04 06:52:33;;;;;;;54.33;28.58;;;;;;;;;;7359836;19;20046;-77
2022/12/04 06:54:58;;;;;;;59.15;31.35;;;;;;;;;;7355030;19;20312;-76
2022/12/04 06:57:23;;;;;;;56.45;30.58;;;;;;;;;;7358998;19;20055;-78
2022/12/04 06:59:48;;;;;;;56.60;29.58;;;;;;;;;;7355166;19;20040;-77
2022/12/04 07:02:14;;;;;;;54.08;29.95;;;;;;;;;;7362899;19;20489;-77
2022/12/04 07:04:39;;;;;;;54.67;29.13;;;;;;;;;;7361579;19;20403;-76
2022/12/04 07:07:06;;;;;;;51.63;27.15;;;;;;;;;;7358351;19;20010;-77
2022/12/04 07:09:31;;;;;;;51.97;27.85;;;;;;;;;;7354556;19;20035;-76
2022/12/04 07:11:56;;;;;;;53.20;29.08;;;;;;;;;;7363313;19;20682;-76
2022/12/04 07:14:22;;;;;;;52.55;29.42;;;;;;;;;;7360408;19;20007;-77
2022/12/04 07:16:47;;;;;;;52.72;28.70;;;;;;;;;;7360223;19;20022;-77
2022/12/04 07:19:12;;;;;;;49.40;26.90;;;;;;;;;;7359080;19;20010;-75
2022/12/04 07:21:38;;;;;;;51.92;28.27;;;;;;;;;;7357670;19;20056;-76
2022/12/04 07:24:03;;;;;;;53.47;27.85;;;;;;;;;;7360249;19;20067;-76
2022/12/04 07:26:29;;;;;;;48.55;26.52;;;;;;;;;;7358952;19;20036;-77
2022/12/04 07:28:55;;;;;;;50.58;28.02;;;;;;;;;;7362641;19;20075;-76
2022/12/04 07:31:22;;;;;;;50.10;26.83;;;;;;;;;;7359882;19;20018;-77
2022/12/04 07:33:47;;;;;;;51.25;27.65;;;;;;;;;;7357038;19;20286;-77
2022/12/04 07:36:15;;;;;;;50.67;29.05;;;;;;;;;;7360795;19;20006;-77
2022/12/04 07:38:40;;;;;;;51.53;29.20;;;;;;;;;;7359528;19;20113;-76
2022/12/04 07:41:06;;;;;;;53.20;28.55;;;;;;;;;;7352733;19;20451;-76
2022/12/04 07:43:32;;;;;;;47.05;27.63;;;;;;;;;;7361860;19;20086;-76
2022/12/04 07:45:57;;;;;;;52.53;28.27;;;;;;;;;;7357779;19;20003;-77
2022/12/04 07:48:23;;;;;;;48.30;28.85;;;;;;;;;;7362962;19;20006;-77
2022/12/04 07:50:48;;;;;;;54.58;30.40;;;;;;;;;;7355184;19;20636;-76
2022/12/04 07:53:14;;;;;;;52.15;28.58;;;;;;;;;;7357395;19;20070;-77
2022/12/04 07:55:39;;;;;;;55.88;29.17;;;;;;;;;;7352411;19;20018;-77
2022/12/04 07:58:04;;;;;;;54.95;30.23;;;;;;;;;;7363187;19;20364;-77
2022/12/04 08:00:30;;;;;;;56.35;30.42;;;;;;;;;;7357186;19;20011;-76
2022/12/04 08:02:55;;;;;;;57.53;30.48;;;;;;;;;;7359030;19;20020;-77
2022/12/04 08:05:20;;;;;;;58.28;32.20;;;;;;;;;;7357909;19;20015;-77
2022/12/04 08:07:46;;;;;;;50.47;28.90;;;;;;;;;;7360123;19;20459;-77
2022/12/04 08:10:11;;;;;;;54.47;29.52;;;;;;;;;;7337302;19;20015;-77
2022/12/04 08:12:36;;;;;;;54.17;30.17;;;;;;;;;;7358660;19;20010;-77
2022/12/04 08:15:02;;;;;;;51.83;29.65;;;;;;;;;;7361386;19;20130;-77
2022/12/04 08:17:27;;;;;;;48.17;27.15;;;;;;;;;;7360755;19;20009;-77
2022/12/04 08:19:52;;;;;;;48.17;27.60;;;;;;;;;;7349538;19;20535;-77
2022/12/04 08:22:17;;;;;;;52.25;27.70;;;;;;;;;;7362090;19;19995;-77
2022/12/04 08:24:43;;;;;;;49.75;28.00;;;;;;;;;;7352610;19;20118;-77
2022/12/04 08:27:08;;;;;;;50.13;29.05;;;;;;;;;;7365055;19;20502;-77
2022/12/04 08:32:14;;;;;;;52.40;29.00;;;;;;;;;;7315935;19;20574;-78
2022/12/04 08:34:40;;;;;;;55.53;31.55;;;;;;;;;;7352221;19;20059;-78
2022/12/04 08:37:05;;;;;;;59.80;32.53;;;;;;;;;;7354697;19;19995;-78
2022/12/04 08:39:30;;;;;;;56.85;30.55;;;;;;;;;;7357724;19;20065;-77
2022/12/04 08:41:55;;;;;;;54.75;30.30;;;;;;;;;;7366531;19;20029;-78
2022/12/04 08:44:20;;;;;;;58.25;31.90;;;;;;;;;;7356211;19;20431;-78
2022/12/04 08:46:46;;;;;;;54.30;30.17;;;;;;;;;;7350971;19;20382;-75
2022/12/04 08:49:11;;;;;;;57.90;31.85;;;;;;;;;;7355272;19;20337;-76
2022/12/04 08:51:36;;;;;;;58.65;30.08;;;;;;;;;;7356843;19;20027;-78
2022/12/04 08:54:03;;;;;;;57.75;30.75;;;;;;;;;;7332789;19;20086;-77
2022/12/04 08:56:29;;;;;;;54.88;31.55;;;;;;;;;;7362391;19;20046;-78
2022/12/04 08:58:55;;;;;;;52.97;29.13;;;;;;;;;;7356300;19;20018;-78
2022/12/04 09:01:20;;;;;;;48.70;28.88;;;;;;;;;;7362390;19;20657;-77
2022/12/04 09:03:45;;;;;;;53.45;29.88;;;;;;;;;;7362850;19;20007;-76
2022/12/04 09:06:12;;;;;;;49.58;28.63;;;;;;;;;;7360120;19;20401;-78
2022/12/04 09:08:37;;;;;;;56.60;30.85;;;;;;;;;;7362688;19;20300;-77
2022/12/04 09:11:07;;;;;;;55.90;30.20;;;;;;;;;;7350420;19;20003;-78
2022/12/04 09:13:32;;;;;;;49.65;27.55;;;;;;;;;;7362736;19;20029;-77
2022/12/04 09:15:57;;;;;;;52.85;29.88;;;;;;;;;;7362898;19;20392;-77
2022/12/04 09:18:23;;;;;;;55.05;30.98;;;;;;;;;;7361787;19;20039;-78
2022/12/04 09:20:58;;;;;;;53.47;29.95;;;;;;;;;;7360382;19;20011;-78
2022/12/04 09:23:24;;;;;;;53.45;29.63;;;;;;;;;;7353169;19;20372;-77
2022/12/04 09:25:49;;;;;;;55.65;29.77;;;;;;;;;;7349092;19;20186;-78
2022/12/04 09:28:14;;;;;;;49.72;27.25;;;;;;;;;;7366498;19;20490;-77
2022/12/04 09:30:39;;;;;;;52.58;28.00;;;;;;;;;;7360067;19;20014;-77
2022/12/04 09:33:04;;;;;;;50.83;27.90;;;;;;;;;;7345387;19;20426;-76
2022/12/04 09:35:30;;;;;;;48.53;27.48;;;;;;;;;;7341236;19;20030;-77
2022/12/04 09:37:55;;;;;;;47.33;27.48;;;;;;;;;;7353629;19;20048;-77
2022/12/04 09:40:28;;;;;;;51.78;29.38;;;;;;;;;;7357361;19;20022;-76
2022/12/04 09:43:02;;;;;;;51.92;28.30;;;;;;;;;;7363307;19;20010;-76
2022/12/04 09:45:32;;;;;;;56.28;30.98;;;;;;;;;;7354198;19;20650;-77
2022/12/04 09:47:58;;;;;;;52.25;29.00;;;;;;;;;;7357278;19;20006;-77
2022/12/04 09:50:32;;;;;;;54.20;31.30;;;;;;;;;;7363599;19;20022;-78
2022/12/04 09:53:07;;;;;;;51.40;28.83;;;;;;;;;;7359482;19;20003;-78
2022/12/04 09:55:46;;;;;;;50.10;27.63;;;;;;;;;;7358090;19;19998;-77
2022/12/04 09:58:19;;;;;;;52.53;28.52;;;;;;;;;;7364625;19;20142;-77
2022/12/04 10:00:46;;;;;;;49.33;28.75;;;;;;;;;;7358160;19;20041;-77
2022/12/04 10:03:14;;;;;;;49.55;28.70;;;;;;;;;;7360194;19;20006;-78
2022/12/04 10:05:45;;;;;;;49.00;26.70;;;;;;;;;;7353949;19;20027;-77
2022/12/04 10:08:18;;;;;;;47.78;27.23;;;;;;;;;;7350824;19;20084;-77
2022/12/04 10:11:03;;;;;;;47.38;27.88;;;;;;;;;;7343740;19;20468;-76
2022/12/04 10:13:47;;;;;;;46.75;27.77;;;;;;;;;;7346093;19;20201;-77
2022/12/04 10:16:13;;;;;;;;;;;;;;;;;;7345767;19;20023;-76
2022/12/04 10:18:49;;;;;;;58.17;29.55;;;;;;;;;;7350195;19;19918;-77
2022/12/04 10:21:17;;;;;;;56.25;30.23;;;;;;;;;;7356503;19;20027;-77
2022/12/04 10:24:07;;;;;;;51.38;29.23;;;;;;;;;;7362719;19;20018;-76
2022/12/04 10:26:36;;;;;;;53.55;28.15;;;;;;;;;;7349235;19;20023;-77
2022/12/04 10:29:02;;;;;;;51.60;27.92;;;;;;;;;;7356266;19;20362;-77
2022/12/04 10:31:28;;;;;;;52.50;27.83;;;;;;;;;;7359498;19;20026;-77
2022/12/04 10:33:57;;;;;;;52.63;28.98;;;;;;;;;;7359775;19;20312;-78
2022/12/04 10:36:24;;;;;;;53.35;26.77;;;;;;;;;;7363312;19;20427;-75
2022/12/04 10:38:54;;;;;;;53.45;28.27;;;;;;;;;;7359918;19;20010;-76
2022/12/04 10:41:34;;;;;;;58.60;29.85;;;;;;;;;;7354158;19;20022;-76
2022/12/04 10:43:59;;;;;;;52.55;28.65;;;;;;;;;;7357610;19;20011;-77
2022/12/04 10:46:29;;;;;;;57.08;29.85;;;;;;;;;;7364776;19;20007;-77
2022/12/04 10:49:08;;;;;;;53.75;29.15;;;;;;;;;;7359386;19;20010;-75
2022/12/04 10:51:42;;;;;;;54.15;29.27;;;;;;;;;;7364980;19;20002;-78
2022/12/04 10:54:23;;;;;;;53.03;27.88;;;;;;;;;;7360728;19;20025;-76
2022/12/04 10:56:50;;;;;;;49.78;26.80;;;;;;;;;;7363075;19;19998;-82
2022/12/04 10:59:15;;;;;;;57.80;30.60;;;;;;;;;;7361501;19;20461;-77
2022/12/04 11:01:40;;;;;;;59.03;30.60;;;;;;;;;;7361558;19;20011;-79
2022/12/04 11:04:08;;;;;;;54.58;28.23;;;;;;;;;;7360072;19;20382;-79
2022/12/04 11:06:33;;;;;;;51.83;27.65;;;;;;;;;;7358943;19;20010;-81
2022/12/04 11:08:59;;;;;;;50.10;27.58;;;;;;;;;;7359859;19;20021;-75
2022/12/04 11:11:26;;;;;;;52.88;27.45;;;;;;;;;;7356193;19;20517;-75
2022/12/04 11:14:02;;;;;;;54.05;27.83;;;;;;;;;;7360825;19;20432;-76
2022/12/04 11:16:30;;;;;;;56.53;28.00;;;;;;;;;;7362917;19;20352;-77
2022/12/04 11:18:55;;;;;;;50.47;27.17;;;;;;;;;;7357066;19;20109;-77
2022/12/04 11:21:26;;;;;;;52.40;27.65;;;;;;;;;;7357324;19;20364;-76
2022/12/04 11:23:51;;;;;;;52.42;27.65;;;;;;;;;;7360329;19;20446;-79
2022/12/04 11:26:27;;;;;;;55.58;28.33;;;;;;;;;;7353661;19;20113;-76
2022/12/04 11:28:52;;;;;;;56.45;30.13;;;;;;;;;;7352794;19;20026;-77
2022/12/04 11:31:19;;;;;;;55.22;30.27;;;;;;;;;;7346364;19;20010;-78
2022/12/04 11:33:48;;;;;;;54.10;28.35;;;;;;;;;;7354733;19;19994;-78
2022/12/04 11:36:22;;;;;;;53.97;29.05;;;;;;;;;;7362314;19;20090;-78
2022/12/04 11:38:48;;;;;;;55.15;28.60;;;;;;;;;;7356026;19;20100;-77
2022/12/04 11:41:22;;;;;;;60.97;30.42;;;;;;;;;;7358488;19;20021;-78
2022/12/04 11:43:49;;;;;;;57.70;30.63;;;;;;;;;;7361959;19;20098;-78
2022/12/04 11:46:18;;;;;;;62.67;31.30;;;;;;;;;;7348720;19;20106;-78
2022/12/04 11:48:44;;;;;;;56.38;29.20;;;;;;;;;;7358628;19;20018;-78
2022/12/04 11:51:09;;;;;;;54.75;28.65;;;;;;;;;;7343470;19;20025;-78
2022/12/04 11:53:49;;;;;;;57.15;30.65;;;;;;;;;;7355656;19;19999;-76
2022/12/04 11:56:21;;;;;;;50.90;27.40;;;;;;;;;;7330760;19;20010;-78
2022/12/04 11:58:55;;;;;;;50.08;27.55;;;;;;;;;;7324489;19;20087;-76
2022/12/04 12:01:36;;;;;;;51.30;27.80;;;;;;;;;;7351233;19;20108;-74
2022/12/04 12:04:21;;;;;;;49.42;25.98;;;;;;;;;;7342497;19;20292;-76
2022/12/04 12:07:05;;;;;;;43.03;23.98;;;;;;;;;;7358239;19;20050;-74
2022/12/04 12:09:30;;;;;;;;;;;;;;;;;;7354373;19;19999;-78
2022/12/04 12:11:56;;;;;;;36.33;19.13;;;;;;;;;;7361342;19;20030;-80
2022/12/04 12:14:25;;;;;;;35.22;19.90;;;;;;;;;;7360470;19;20454;-81
2022/12/04 12:17:08;;;;;;;30.88;16.95;;;;;;;;;;7362576;19;20019;-78
2022/12/04 12:19:52;;;;;;;31.15;18.13;;;;;;;;;;7367320;19;20462;-76
2022/12/04 12:22:36;;;;;;;31.05;16.45;;;;;;;;;;7365343;19;20081;-81
2022/12/04 12:25:15;;;;;;;30.90;17.48;;;;;;;;;;7362506;19;20010;-81
2022/12/04 12:27:57;;;;;;;29.45;17.35;;;;;;;;;;7365373;19;20043;-79
2022/12/04 12:30:24;;;;;;;33.53;18.05;;;;;;;;;;7366548;19;20535;-80
2022/12/04 12:33:13;;;;;;;30.80;17.83;;;;;;;;;;7363169;19;20346;-80
2022/12/04 12:35:57;;;;;;;32.83;18.25;;;;;;;;;;7369391;19;20107;-79
2022/12/04 12:38:22;;;;;;;;;;;;;;;;;;7374095;19;19999;-80
2022/12/04 12:40:49;;;;;;;28.73;16.45;;;;;;;;;;7373450;19;19923;-81
2022/12/04 12:43:23;;;;;;;28.60;15.80;;;;;;;;;;7372978;19;20019;-81
2022/12/04 12:45:59;;;;;;;29.13;17.02;;;;;;;;;;7372855;19;20034;-81
2022/12/04 12:48:24;;;;;;;31.30;17.05;;;;;;;;;;7374323;19;19995;-80
2022/12/04 12:50:54;;;;;;;37.10;20.02;;;;;;;;;;7369217;19;20042;-78
2022/12/04 12:53:22;;;;;;;36.22;17.98;;;;;;;;;;7370303;19;20041;-82
2022/12/04 12:55:50;;;;;;;31.70;17.13;;;;;;;;;;7362632;19;20706;-81
2022/12/04 12:58:34;;;;;;;33.78;16.83;;;;;;;;;;7373636;19;20023;-79
2022/12/04 13:01:03;;;;;;;31.75;17.58;;;;;;;;;;7360150;19;20086;-80
2022/12/04 13:03:34;;;;;;;29.23;16.05;;;;;;;;;;7366952;19;20015;-81
2022/12/04 13:06:02;;;;;;;29.33;16.95;;;;;;;;;;7360983;19;20463;-78
2022/12/04 13:08:38;;;;;;;29.08;16.60;;;;;;;;;;7370120;19;20003;-80
2022/12/04 13:11:03;;;;;;;26.95;15.00;;;;;;;;;;7360663;19;20444;-80
2022/12/04 13:13:31;;;;;;;29.45;15.48;;;;;;;;;;7369703;19;20046;-80
2022/12/04 13:16:17;;;;;;;28.17;16.58;;;;;;;;;;7366087;19;20031;-80
2022/12/04 13:18:44;;;;;;;68.70;36.50;;;;;;;;;;7368001;19;20067;-81
2022/12/04 13:21:19;;;;;;;29.42;17.15;;;;;;;;;;7367195;19;20018;-81
2022/12/04 13:23:56;;;;;;;28.80;16.10;;;;;;;;;;7365131;19;20010;-81
2022/12/04 13:26:33;;;;;;;31.75;18.55;;;;;;;;;;7354926;19;20055;-80
2022/12/04 13:29:01;;;;;;;33.78;19.23;;;;;;;;;;7364798;19;20160;-78
2022/12/04 13:31:32;;;;;;;31.33;17.65;;;;;;;;;;7367103;19;20062;-81
2022/12/04 13:34:02;;;;;;;30.52;19.15;;;;;;;;;;7359429;19;20027;-81
2022/12/04 13:36:46;;;;;;;25.70;14.60;;;;;;;;;;7366254;19;20042;-81
2022/12/04 13:39:23;;;;;;;27.75;16.00;;;;;;;;;;7361398;19;20007;-80
2022/12/04 13:41:55;;;;;;;26.58;15.20;;;;;;;;;;7368441;19;20037;-79
2022/12/04 13:44:22;;;;;;;24.80;14.75;;;;;;;;;;7366682;19;20562;-80
2022/12/04 13:47:02;;;;;;;25.02;15.30;;;;;;;;;;7366074;19;20026;-81
2022/12/04 13:49:34;;;;;;;25.73;14.50;;;;;;;;;;7358953;19;20110;-79
2022/12/04 13:52:01;;;;;;;23.50;13.07;;;;;;;;;;7360290;19;20017;-77
2022/12/04 13:54:29;;;;;;;21.92;13.43;;;;;;;;;;7361770;19;20019;-78
2022/12/04 13:56:57;;;;;;;27.50;15.15;;;;;;;;;;7364332;19;20019;-78
2022/12/04 13:59:29;;;;;;;23.88;12.50;;;;;;;;;;7353034;19;20333;-80
2022/12/04 14:01:56;;;;;;;23.05;13.45;;;;;;;;;;7362615;19;20067;-79
2022/12/04 14:04:34;;;;;;;21.55;12.75;;;;;;;;;;7363425;19;20446;-82
2022/12/04 14:07:01;;;;;;;26.08;13.95;;;;;;;;;;7362018;19;20364;-81
2022/12/04 14:09:27;;;;;;;23.90;13.63;;;;;;;;;;7361309;19;20684;-82
2022/12/04 14:11:56;;;;;;;25.10;14.68;;;;;;;;;;7364773;19;20078;-78
2022/12/04 14:14:42;;;;;;;26.10;15.00;;;;;;;;;;7362323;19;20014;-80
2022/12/04 14:17:16;;;;;;;27.40;14.60;;;;;;;;;;7360824;19;20006;-79
2022/12/04 14:19:44;;;;;;;24.10;13.82;;;;;;;;;;7365179;19;20014;-81
2022/12/04 14:22:37;;;;;;;29.38;15.10;;;;;;;;;;7357575;19;20006;-77
2022/12/04 14:25:11;;;;;;;24.23;14.15;;;;;;;;;;7357477;19;20454;-81
2022/12/04 14:27:39;;;;;;;28.08;15.95;;;;;;;;;;7364772;19;20461;-81
2022/12/04 14:30:14;;;;;;;28.17;14.60;;;;;;;;;;7364533;19;20083;-79
2022/12/04 14:32:40;;;;;;;27.35;14.93;;;;;;;;;;7367611;19;20038;-80
2022/12/04 14:35:11;;;;;;;25.73;13.32;;;;;;;;;;7363041;19;20046;-80
2022/12/04 14:37:39;;;;;;;25.63;14.00;;;;;;;;;;7365655;19;20014;-78
2022/12/04 14:40:06;;;;;;;25.75;13.93;;;;;;;;;;7361810;19;20424;-79
2022/12/04 14:42:38;;;;;;;24.33;13.30;;;;;;;;;;7367166;19;20048;-80